Terminal Aerodrome Forecast
Issued by NWS Sterling, VA

Current Version | Previous Version | Graphics & Text | Print | Product List | Glossary On
Versions: 1 2 3 4 5 6 7 8 9 10 11 12 13 14 15 16 17 18 19 20 21 22 23 24 25 26 27
000
FTUS41 KLWX 140500 RRA
TAFIAD
TAF
KIAD 140549Z 1406/1512 18009KT P6SM BKN250 WS020/20040KT
     FM141100 19012KT P6SM SCT025 BKN200
     FM141400 19014G27KT P6SM SCT050 BKN200
     FM150100 18015KT P6SM -SHRA OVC080
     FM150700 18014KT 6SM -SHRA OVC015
     FM150900 17014KT 3SM SHRA OVC008=

USA.gov is the U.S. government's official web portal to all federal, state and local government web resources and services.